Weather reports worldwide

Advertisment
Aonach Mor, United Kingdom (3041): temperature & dewpoint: 25.10.2020 05:00:00 - 31.10.2020 05:00:00 (GMT)Aonach Mor, United Kingdom (3041): wind speed & gusts: 25.10.2020 05:00:00 - 31.10.2020 05:00:00 (GMT)Aonach Mor, United Kingdom (3041): wind direction: 25.10.2020 05:00:00 - 31.10.2020 05:00:00 (GMT)
Date & Time tt [°C] td [°C] ff [km/h] ff [kn] fx [km/h] fx [kn] dd
31.10.2020 05:00:00 - - - - - - -
31.10.2020 04:00:00 - - - - - - -
31.10.2020 03:00:00 - - - - - - -
31.10.2020 02:00:00 - - - - - - -
31.10.2020 01:00:00 - - - - - - -
31.10.2020 00:00:00 - - - - - - -
30.10.2020 23:00:00 - - - - - - -
30.10.2020 22:00:00 - - - - - - -
30.10.2020 21:00:00 - - - - - - -
30.10.2020 20:00:00 - - - - - - -
30.10.2020 19:00:00 - - - - - - -
30.10.2020 18:00:00 - - - - - - -
30.10.2020 17:00:00 - - - - - - -
30.10.2020 16:00:00 - - - - - - -
30.10.2020 15:00:00 - - - - - - -
30.10.2020 14:00:00 - - - - - - -
30.10.2020 13:00:00 - - - - - - -
30.10.2020 12:00:00 - - - - - - -
30.10.2020 11:00:00 - - - - - - -
30.10.2020 10:00:00 - - - - - - -
30.10.2020 09:00:00 - - - - - - -
30.10.2020 08:00:00 - - - - - - -
30.10.2020 07:00:00 - - - - - - -
30.10.2020 06:00:00 - - - - - - -
30.10.2020 05:00:00 - - - - - - -
30.10.2020 04:00:00 - - - - - - -
30.10.2020 03:00:00 - - - - - - -
30.10.2020 02:00:00 - - - - - - -
30.10.2020 01:00:00 - - - - - - -
30.10.2020 00:00:00 7,4 7,4 93 50 141 76 SW
29.10.2020 23:00:00 8,1 8,1 78 42 122 66 SSW
29.10.2020 22:00:00 8,1 8,1 81 44 119 64 SSW
29.10.2020 21:00:00 8,0 8,0 74 40 111 60 SSW
29.10.2020 20:00:00 7,7 7,7 63 34 102 55 SSW
29.10.2020 19:00:00 7,7 7,7 72 39 111 60 SSW
29.10.2020 18:00:00 7,2 7,2 78 42 107 58 SSW
29.10.2020 17:00:00 5,0 5,0 72 39 89 48 S
29.10.2020 16:00:00 4,1 4,1 55 30 72 39 S
29.10.2020 15:00:00 3,3 3,3 52 28 74 40 S
29.10.2020 14:00:00 3,2 3,2 55 30 81 44 S
29.10.2020 13:00:00 3,6 3,6 61 33 83 45 S
29.10.2020 12:00:00 2,3 2,3 59 32 85 46 S
29.10.2020 11:00:00 1,1 1,1 54 29 74 40 S
29.10.2020 10:00:00 0,8 0,8 52 28 70 38 S
29.10.2020 09:00:00 -0,2 -0,2 41 22 55 30 S
29.10.2020 08:00:00 -0,5 -0,5 39 21 59 32 S
29.10.2020 07:00:00 -0,1 -0,1 42 23 61 33 SSW
29.10.2020 06:00:00 0,0 0,0 48 26 70 38 SSW
29.10.2020 05:00:00 0,1 0,1 42 23 70 38 SW
29.10.2020 04:00:00 0,2 0,2 50 27 76 41 SW
29.10.2020 03:00:00 0,5 0,5 41 22 81 44 SW
29.10.2020 02:00:00 0,2 0,2 50 27 78 42 SW
29.10.2020 01:00:00 0,7 0,7 54 29 85 46 SW
29.10.2020 00:00:00 0,1 0,1 57 31 76 41 WSW
28.10.2020 23:00:00 0,1 0,1 41 22 70 38 WSW
28.10.2020 22:00:00 0,1 0,1 39 21 65 35 SSW
28.10.2020 21:00:00 0,1 0,1 46 25 70 38 SSW
28.10.2020 20:00:00 0,1 0,1 50 27 83 45 SSW
28.10.2020 19:00:00 0,1 0,1 52 28 83 45 SSW
28.10.2020 18:00:00 0,1 0,1 50 27 100 54 SW
28.10.2020 17:00:00 0,1 0,1 61 33 87 47 SSW
28.10.2020 16:00:00 0,1 0,1 54 29 85 46 SW
28.10.2020 15:00:00 0,0 0,0 63 34 83 45 SW
28.10.2020 14:00:00 0,4 0,4 54 29 89 48 SSW
28.10.2020 13:00:00 0,6 0,6 61 33 100 54 SSW
28.10.2020 12:00:00 0,4 0,4 57 31 93 50 SSW
28.10.2020 11:00:00 0,4 0,4 59 32 93 50 SSW
28.10.2020 10:00:00 0,3 0,3 65 35 85 46 SSW
28.10.2020 09:00:00 0,3 0,3 50 27 85 46 SSW
28.10.2020 08:00:00 0,4 0,4 59 32 93 50 SSW
28.10.2020 07:00:00 0,1 0,1 55 30 87 47 SSW
28.10.2020 06:00:00 0,1 0,1 61 33 94 51 SW
28.10.2020 05:00:00 0,1 0,1 57 31 94 51 SSW
28.10.2020 04:00:00 0,0 0,0 55 30 80 43 SW
28.10.2020 03:00:00 0,0 0,0 54 29 81 44 SSW
28.10.2020 02:00:00 0,0 0,0 59 32 85 46 SSW
28.10.2020 01:00:00 -0,2 -0,2 48 26 74 40 SSW
28.10.2020 00:00:00 -0,5 -0,5 59 32 78 42 SSW
27.10.2020 23:00:00 -0,4 -0,4 55 30 76 41 SSW
27.10.2020 22:00:00 -0,4 -0,4 39 21 78 42 SW
27.10.2020 21:00:00 -0,7 -0,7 55 30 85 46 SW
27.10.2020 20:00:00 -0,1 -0,1 41 22 80 43 WSW
27.10.2020 19:00:00 -0,2 -0,2 46 25 63 34 SW
27.10.2020 18:00:00 -0,7 -0,7 39 21 61 33 SW
27.10.2020 17:00:00 -0,2 -0,2 37 20 52 28 WSW
27.10.2020 16:00:00 1,2 1,2 37 20 57 31 S
27.10.2020 15:00:00 1,8 1,8 39 21 59 32 S
27.10.2020 14:00:00 2,1 2,1 42 23 74 40 S
27.10.2020 13:00:00 2,4 2,4 52 28 83 45 S
27.10.2020 12:00:00 2,2 2,2 57 31 85 46 S
27.10.2020 11:00:00 0,9 0,9 26 14 68 37 SSE
27.10.2020 10:00:00 0,1 0,1 39 21 65 35 S
27.10.2020 09:00:00 0,1 0,1 44 24 59 32 S
27.10.2020 08:00:00 0,1 0,1 37 20 50 27 S
27.10.2020 07:00:00 0,1 0,1 29 16 - - S
27.10.2020 06:00:00 -0,2 -0,2 26 14 - - SSW
27.10.2020 05:00:00 -0,1 -0,1 21 11 - - SSW
27.10.2020 04:00:00 0,2 0,2 18 10 - - SSW
27.10.2020 03:00:00 0,5 0,5 15 8 - - SSW
27.10.2020 02:00:00 0,7 0,7 18 10 - - SW
27.10.2020 01:00:00 1,1 1,1 22 12 - - WSW
27.10.2020 00:00:00 1,5 1,5 22 12 - - WSW
26.10.2020 23:00:00 1,7 1,7 16 9 - - WSW
26.10.2020 22:00:00 1,8 1,8 9 5 - - W
26.10.2020 21:00:00 1,8 1,8 15 8 - - WNW
26.10.2020 20:00:00 1,9 1,9 13 7 - - W
26.10.2020 19:00:00 1,9 1,9 16 9 - - W
26.10.2020 18:00:00 2,1 2,1 16 9 - - W
26.10.2020 17:00:00 2,2 2,2 18 10 - - WNW
26.10.2020 16:00:00 2,3 2,3 16 9 - - W
26.10.2020 15:00:00 2,3 2,3 21 11 - - W
26.10.2020 14:00:00 2,3 2,3 22 12 - - W
26.10.2020 13:00:00 2,3 2,3 22 12 - - W
26.10.2020 12:00:00 2,2 2,2 26 14 - - WSW
26.10.2020 11:00:00 1,9 1,9 16 9 - - WSW
26.10.2020 10:00:00 1,7 1,7 18 10 - - WSW
26.10.2020 09:00:00 1,8 1,8 15 8 94 51 W
26.10.2020 08:00:00 - - - - - - -
26.10.2020 07:00:00 - - - - - - -
26.10.2020 06:00:00 - - - - - - -
26.10.2020 05:00:00 - - - - - - -
26.10.2020 04:00:00 - - - - - - -
26.10.2020 03:00:00 - - - - - - -
26.10.2020 02:00:00 - - - - - - -
26.10.2020 01:00:00 - - - - - - -
26.10.2020 00:00:00 1,5 1,5 22 12 - - WSW
25.10.2020 23:00:00 - - - - - - -
25.10.2020 22:00:00 - - - - - - -
25.10.2020 21:00:00 - - - - - - -
25.10.2020 20:00:00 - - - - - - -
25.10.2020 19:00:00 - - - - - - -
25.10.2020 18:00:00 - - - - - - -
25.10.2020 17:00:00 - - - - - - -
25.10.2020 16:00:00 - - - - - - -
25.10.2020 15:00:00 - - - - - - -
25.10.2020 14:00:00 0,7 0,7 76 41 115 62 SSW
25.10.2020 13:00:00 0,2 0,2 72 39 109 59 SSW
25.10.2020 12:00:00 0,1 0,1 65 35 94 51 SSW
25.10.2020 11:00:00 0,0 0,0 65 35 102 55 SSW
25.10.2020 10:00:00 -0,3 -0,3 65 35 93 50 SSW
25.10.2020 09:00:00 -0,4 -0,4 52 28 85 46 S
25.10.2020 08:00:00 -0,3 -0,3 50 27 87 47 SSW
25.10.2020 07:00:00 -0,4 -0,4 61 33 93 50 SSW
25.10.2020 06:00:00 -0,4 -0,4 63 34 91 49 S
25.10.2020 05:00:00 -0,3 -0,3 57 31 94 51 SSW

tt = temperature
td = dewpoint
ff = wind speed
fx = gusts
dd = wind direction

Next stations